Time;durP1;ratioP1;P1;durP2;ratioP2;P2;SDS_P1;SDS_P2;PMS_P1;PMS_P2;Temp;Humidity;BMP_temperature;BMP_pressure;BME280_temperature;BME280_humidity;BME280_pressure;Samples;Min_cycle;Max_cycle;Signal;HPM_P1;HPM_P2
2022/08/17 00:02:20;;;;;;;1999.90;999.90;;;;;;;;;;5084755;28;20411;-78
2022/08/17 00:04:53;;;;;;;1999.90;999.90;;;;;;;;;;5063608;28;20412;-79
2022/08/17 00:07:21;;;;;;;1999.90;999.90;;;;;;;;;;5046254;28;20418;-78
2022/08/17 00:09:49;;;;;;;1999.90;999.90;;;;;;;;;;5056987;28;20385;-80
2022/08/17 00:12:16;;;;;;;1999.90;999.90;;;;;;;;;;5075092;28;20419;-78
2022/08/17 00:15:05;;;;;;;1999.90;999.90;;;;;;;;;;5055997;28;20380;-77
2022/08/17 00:17:40;;;;;;;1999.90;999.90;;;;;;;;;;5045284;28;20400;-79
2022/08/17 00:20:09;;;;;;;1999.90;999.90;;;;;;;;;;5067154;28;20400;-78
2022/08/17 00:22:36;;;;;;;1999.90;999.90;;;;;;;;;;5080330;28;20782;-78
2022/08/17 00:25:06;;;;;;;1999.90;999.90;;;;;;;;;;5081415;28;20405;-78
2022/08/17 00:27:34;;;;;;;1999.90;999.90;;;;;;;;;;5063704;28;20408;-78
2022/08/17 00:30:03;;;;;;;1999.90;999.90;;;;;;;;;;5082485;28;20941;-79
2022/08/17 00:32:35;;;;;;;1999.90;999.90;;;;;;;;;;5080046;28;21198;-79
2022/08/17 00:35:26;;;;;;;1999.90;999.90;;;;;;;;;;5070511;28;20394;-78
2022/08/17 00:37:54;;;;;;;1999.90;999.90;;;;;;;;;;5080099;28;20397;-79
2022/08/17 00:40:22;;;;;;;1999.90;999.90;;;;;;;;;;5077267;28;20409;-78
2022/08/17 00:42:52;;;;;;;1999.90;999.90;;;;;;;;;;5063998;28;20878;-78
2022/08/17 00:45:20;;;;;;;1999.90;999.90;;;;;;;;;;5062676;28;20952;-78
2022/08/17 00:47:48;;;;;;;1999.90;999.90;;;;;;;;;;5073816;28;20698;-78
2022/08/17 00:50:18;;;;;;;1999.90;999.90;;;;;;;;;;5079995;28;20396;-78
2022/08/17 00:52:51;;;;;;;1999.90;999.90;;;;;;;;;;5060790;28;20409;-78
2022/08/17 00:55:19;;;;;;;1999.90;999.90;;;;;;;;;;5056727;28;20441;-78
2022/08/17 00:57:50;;;;;;;1999.90;999.90;;;;;;;;;;5050843;28;20406;-78
2022/08/17 01:00:25;;;;;;;1999.90;999.90;;;;;;;;;;5059808;28;20426;-78
2022/08/17 01:02:55;;;;;;;1999.90;999.90;;;;;;;;;;5059237;28;20424;-77
2022/08/17 01:05:24;;;;;;;1999.90;999.90;;;;;;;;;;5059219;28;20405;-77
2022/08/17 01:07:54;;;;;;;1999.90;999.90;;;;;;;;;;5065211;28;20392;-78
2022/08/17 01:10:24;;;;;;;1999.90;999.90;;;;;;;;;;5060335;28;20414;-78
2022/08/17 01:13:12;;;;;;;1999.90;999.90;;;;;;;;;;5075102;28;20398;-78
2022/08/17 01:15:46;;;;;;;1999.90;999.90;;;;;;;;;;5066342;28;20388;-78
2022/08/17 01:18:14;;;;;;;1999.90;999.90;;;;;;;;;;5065355;28;20980;-77
2022/08/17 01:20:45;;;;;;;1999.90;999.90;;;;;;;;;;5062588;28;20393;-77
2022/08/17 01:23:16;;;;;;;1999.90;999.90;;;;;;;;;;5082026;28;20917;-77
2022/08/17 01:25:49;;;;;;;1999.90;999.90;;;;;;;;;;5065050;28;20808;-77
2022/08/17 01:28:17;;;;;;;1999.90;999.90;;;;;;;;;;5066460;28;20436;-77
2022/08/17 01:31:06;;;;;;;1999.90;999.90;;;;;;;;;;5082160;28;20393;-77
2022/08/17 01:33:34;;;;;;;1999.90;999.90;;;;;;;;;;5079884;28;20412;-77
2022/08/17 01:36:02;;;;;;;1999.90;999.90;;;;;;;;;;5080795;28;20905;-77
2022/08/17 01:38:32;;;;;;;1999.90;999.90;;;;;;;;;;5078612;28;20416;-78
2022/08/17 01:41:00;;;;;;;1999.90;999.90;;;;;;;;;;5064723;28;21334;-78
2022/08/17 01:43:32;;;;;;;1999.90;999.90;;;;;;;;;;5063587;28;20420;-79
2022/08/17 01:46:00;;;;;;;1999.90;999.90;;;;;;;;;;5057065;28;20827;-77
2022/08/17 01:48:30;;;;;;;1999.90;999.90;;;;;;;;;;5078718;28;21018;-79
2022/08/17 01:50:58;;;;;;;1999.90;999.90;;;;;;;;;;5072043;28;20403;-77
2022/08/17 01:53:28;;;;;;;1999.90;999.90;;;;;;;;;;5076128;28;20399;-78
2022/08/17 01:55:58;;;;;;;1999.90;999.90;;;;;;;;;;5061475;28;20405;-78
2022/08/17 01:58:26;;;;;;;1999.90;999.90;;;;;;;;;;5046999;28;20398;-78
2022/08/17 02:00:55;;;;;;;1999.90;999.90;;;;;;;;;;5063824;28;21208;-78
2022/08/17 02:03:42;;;;;;;1999.90;999.90;;;;;;;;;;5078948;28;20412;-78
2022/08/17 02:06:25;;;;;;;1999.90;999.90;;;;;;;;;;5077101;28;20507;-77
2022/08/17 02:08:54;;;;;;;1999.90;999.90;;;;;;;;;;5046378;28;20412;-78
2022/08/17 02:11:32;;;;;;;1999.90;999.90;;;;;;;;;;5061726;28;20390;-77
2022/08/17 02:14:01;;;;;;;1999.90;999.90;;;;;;;;;;5056043;28;20441;-76
2022/08/17 02:16:30;;;;;;;1999.90;999.90;;;;;;;;;;5059398;28;20408;-77
2022/08/17 02:19:06;;;;;;;1999.90;999.90;;;;;;;;;;5078522;28;20424;-80
2022/08/17 02:21:34;;;;;;;1999.90;999.90;;;;;;;;;;5064197;28;20413;-80
2022/08/17 02:24:02;;;;;;;1999.90;999.90;;;;;;;;;;5059200;28;20428;-80
2022/08/17 02:26:30;;;;;;;1999.90;999.90;;;;;;;;;;5060890;28;20402;-80
2022/08/17 02:28:59;;;;;;;1999.90;999.90;;;;;;;;;;5078489;28;20416;-81
2022/08/17 02:31:27;;;;;;;1999.90;999.90;;;;;;;;;;5042301;28;20377;-81
2022/08/17 02:33:55;;;;;;;1999.90;999.90;;;;;;;;;;5085897;28;20412;-80
2022/08/17 02:36:31;;;;;;;1999.90;999.90;;;;;;;;;;5067773;28;20389;-81
2022/08/17 02:38:59;;;;;;;1999.90;999.90;;;;;;;;;;5047996;28;20408;-80
2022/08/17 02:41:27;;;;;;;1999.90;999.90;;;;;;;;;;5066073;28;20427;-80
2022/08/17 02:43:55;;;;;;;1999.90;999.90;;;;;;;;;;5085214;28;20430;-81
2022/08/17 02:46:24;;;;;;;1999.90;999.90;;;;;;;;;;5056589;28;20418;-81
2022/08/17 02:48:52;;;;;;;1999.90;999.90;;;;;;;;;;5072600;28;20361;-81
2022/08/17 02:51:19;;;;;;;1999.90;999.90;;;;;;;;;;5068637;28;20476;-80
2022/08/17 02:53:47;;;;;;;1999.90;999.90;;;;;;;;;;5056379;28;20456;-81
2022/08/17 02:56:15;;;;;;;1999.90;999.90;;;;;;;;;;5088518;28;20468;-79
2022/08/17 02:58:43;;;;;;;1999.90;999.90;;;;;;;;;;5091937;28;20952;-80
2022/08/17 03:01:11;;;;;;;1999.90;999.90;;;;;;;;;;5054366;28;20413;-80
2022/08/17 03:03:41;;;;;;;1999.90;999.90;;;;;;;;;;5077056;28;20404;-79
2022/08/17 03:06:09;;;;;;;1999.90;999.90;;;;;;;;;;5092937;28;20441;-80
2022/08/17 03:08:37;;;;;;;1999.90;999.90;;;;;;;;;;5087026;28;20373;-80
2022/08/17 03:11:05;;;;;;;1999.90;999.90;;;;;;;;;;5054604;28;21706;-82
2022/08/17 03:13:32;;;;;;;1999.90;999.90;;;;;;;;;;5088563;28;20400;-80
2022/08/17 03:16:00;;;;;;;1999.90;999.90;;;;;;;;;;5056435;28;20424;-81
2022/08/17 03:18:28;;;;;;;1999.90;999.90;;;;;;;;;;5091602;28;21229;-80
2022/08/17 03:20:59;;;;;;;1999.90;999.90;;;;;;;;;;5090724;28;20422;-80
2022/08/17 03:23:27;;;;;;;1999.90;999.90;;;;;;;;;;5058828;28;20396;-80
2022/08/17 03:25:56;;;;;;;1999.90;999.90;;;;;;;;;;5079579;28;20419;-80
2022/08/17 03:28:25;;;;;;;1999.90;999.90;;;;;;;;;;5061482;28;20583;-81
2022/08/17 03:30:53;;;;;;;1999.90;999.90;;;;;;;;;;5072919;28;20389;-81
2022/08/17 03:33:20;;;;;;;1999.90;999.90;;;;;;;;;;5098981;28;20401;-81
2022/08/17 03:35:48;;;;;;;1999.90;999.90;;;;;;;;;;5084885;28;20383;-81
2022/08/17 03:38:17;;;;;;;1999.90;999.90;;;;;;;;;;5094306;28;20436;-82
2022/08/17 03:40:46;;;;;;;1999.90;999.90;;;;;;;;;;5073592;28;20401;-81
2022/08/17 03:43:25;;;;;;;1999.90;999.90;;;;;;;;;;5093199;28;20850;-81
2022/08/17 03:57:15;;;;;;;1999.90;999.90;;;;;;;;;;5083469;28;20449;-80
2022/08/17 03:59:43;;;;;;;1999.90;999.90;;;;;;;;;;5066140;28;20532;-80
2022/08/17 04:02:13;;;;;;;1999.90;999.90;;;;;;;;;;5084829;28;21000;-81
2022/08/17 04:04:42;;;;;;;1999.90;999.90;;;;;;;;;;5079734;28;20979;-80
2022/08/17 04:07:09;;;;;;;1999.90;999.90;;;;;;;;;;5083389;28;20430;-80
2022/08/17 04:09:38;;;;;;;1999.90;999.90;;;;;;;;;;5086144;28;20954;-79
2022/08/17 04:12:06;;;;;;;1999.90;999.90;;;;;;;;;;5065340;28;20403;-80
2022/08/17 04:14:37;;;;;;;1999.90;999.90;;;;;;;;;;5084008;28;20447;-80
2022/08/17 04:17:21;;;;;;;1999.90;999.90;;;;;;;;;;5082885;28;20407;-80
2022/08/17 04:19:48;;;;;;;1999.90;999.90;;;;;;;;;;5078312;28;20396;-81
2022/08/17 04:22:16;;;;;;;1999.90;999.90;;;;;;;;;;5063710;28;20480;-80
2022/08/17 04:25:03;;;;;;;1999.90;999.90;;;;;;;;;;5088265;28;20410;-79
2022/08/17 04:27:31;;;;;;;1999.90;999.90;;;;;;;;;;5070494;28;20408;-79
2022/08/17 04:29:58;;;;;;;1999.90;999.90;;;;;;;;;;5079917;28;20393;-79
2022/08/17 04:32:26;;;;;;;1999.90;999.90;;;;;;;;;;5066050;28;20485;-79
2022/08/17 04:35:17;;;;;;;1999.90;999.90;;;;;;;;;;5084589;28;20905;-80
2022/08/17 04:37:46;;;;;;;1999.90;999.90;;;;;;;;;;5087772;28;20393;-79
2022/08/17 04:43:02;;;;;;;1999.90;999.90;;;;;;;;;;5081079;28;20434;-77
2022/08/17 04:45:30;;;;;;;1999.90;999.90;;;;;;;;;;5082806;28;21189;-77
2022/08/17 04:47:59;;;;;;;1999.90;999.90;;;;;;;;;;5079731;28;20399;-76
2022/08/17 04:50:27;;;;;;;1999.90;999.90;;;;;;;;;;5063114;28;20403;-78
2022/08/17 04:52:55;;;;;;;1999.90;999.90;;;;;;;;;;5064018;28;20456;-77
2022/08/17 04:55:25;;;;;;;1999.90;999.90;;;;;;;;;;5059988;28;20417;-77
2022/08/17 04:57:53;;;;;;;1999.90;999.90;;;;;;;;;;5079159;28;20483;-76
2022/08/17 05:00:21;;;;;;;1999.90;999.90;;;;;;;;;;5064351;28;20409;-77
2022/08/17 05:02:49;;;;;;;1999.90;999.90;;;;;;;;;;5064645;28;20408;-78
2022/08/17 05:05:18;;;;;;;1999.90;999.90;;;;;;;;;;5061752;28;20432;-77
2022/08/17 05:07:47;;;;;;;1999.90;999.90;;;;;;;;;;5082259;28;20421;-77
2022/08/17 05:10:15;;;;;;;1999.90;999.90;;;;;;;;;;5083484;28;20888;-77
2022/08/17 05:12:44;;;;;;;1999.90;999.90;;;;;;;;;;5062545;28;20393;-78
2022/08/17 05:15:14;;;;;;;1999.90;999.90;;;;;;;;;;5041320;28;20938;-77
2022/08/17 05:17:42;;;;;;;1999.90;999.90;;;;;;;;;;5080601;28;20467;-77
2022/08/17 05:20:11;;;;;;;1999.90;999.90;;;;;;;;;;5043672;28;20408;-79
2022/08/17 05:22:48;;;;;;;1999.90;999.90;;;;;;;;;;5040712;28;20618;-79
2022/08/17 05:25:17;;;;;;;1999.90;999.90;;;;;;;;;;5061602;28;20926;-77
2022/08/17 05:27:53;;;;;;;1999.90;999.90;;;;;;;;;;5081429;28;20530;-79
2022/08/17 05:30:21;;;;;;;1999.90;999.90;;;;;;;;;;5063941;28;20405;-78
2022/08/17 05:32:52;;;;;;;1999.90;999.90;;;;;;;;;;5079690;28;21313;-77
2022/08/17 05:35:21;;;;;;;1999.90;999.90;;;;;;;;;;5080911;28;20440;-77
2022/08/17 05:37:49;;;;;;;1999.90;999.90;;;;;;;;;;5080440;28;20407;-76
2022/08/17 05:40:17;;;;;;;1999.90;999.90;;;;;;;;;;5081195;28;20393;-78
2022/08/17 05:42:45;;;;;;;1999.90;999.90;;;;;;;;;;5062522;28;20404;-77
2022/08/17 05:45:15;;;;;;;1999.90;999.90;;;;;;;;;;5062891;28;20501;-77
2022/08/17 05:47:59;;;;;;;1999.90;999.90;;;;;;;;;;5075953;28;20393;-77
2022/08/17 05:50:30;;;;;;;1999.90;999.90;;;;;;;;;;5058914;28;20397;-77
2022/08/17 05:53:03;;;;;;;1999.90;999.90;;;;;;;;;;5058473;28;20381;-77
2022/08/17 05:55:35;;;;;;;1999.90;999.90;;;;;;;;;;5060567;28;20417;-77
2022/08/17 05:58:08;;;;;;;1999.90;999.90;;;;;;;;;;5061477;28;20405;-77
2022/08/17 06:00:42;;;;;;;1999.90;999.90;;;;;;;;;;5045792;28;21535;-77
2022/08/17 06:03:31;;;;;;;1999.90;999.90;;;;;;;;;;5063203;28;20489;-78
2022/08/17 06:06:02;;;;;;;1999.90;999.90;;;;;;;;;;5056353;28;20414;-76
2022/08/17 06:08:33;;;;;;;1999.90;999.90;;;;;;;;;;5063099;28;20429;-75
2022/08/17 06:11:05;;;;;;;1999.90;999.90;;;;;;;;;;5078907;28;20404;-76
2022/08/17 06:13:41;;;;;;;1999.90;999.90;;;;;;;;;;5075530;28;20494;-77
2022/08/17 06:16:11;;;;;;;1999.90;999.90;;;;;;;;;;5067531;28;20411;-75
2022/08/17 06:19:00;;;;;;;1999.90;999.90;;;;;;;;;;5066375;28;20401;-76
2022/08/17 06:21:30;;;;;;;1999.90;999.90;;;;;;;;;;5062787;28;20424;-76
2022/08/17 06:24:02;;;;;;;1999.90;999.90;;;;;;;;;;5076285;28;20393;-76
2022/08/17 06:26:31;;;;;;;1999.90;999.90;;;;;;;;;;5058249;28;20416;-76
2022/08/17 06:29:15;;;;;;;1999.90;999.90;;;;;;;;;;5055786;28;20507;-76
2022/08/17 06:31:47;;;;;;;1999.90;999.90;;;;;;;;;;5056791;28;20412;-77
2022/08/17 06:34:15;;;;;;;1999.90;999.90;;;;;;;;;;5058211;28;20377;-75
2022/08/17 06:36:48;;;;;;;1999.90;999.90;;;;;;;;;;5078083;28;21002;-74
2022/08/17 06:39:23;;;;;;;1999.90;999.90;;;;;;;;;;5059155;28;20404;-75
2022/08/17 06:41:56;;;;;;;1999.90;999.90;;;;;;;;;;5079626;28;20904;-73
2022/08/17 06:44:28;;;;;;;1999.90;999.90;;;;;;;;;;5061402;28;20951;-74
2022/08/17 06:47:22;;;;;;;1999.90;999.90;;;;;;;;;;5061525;28;20420;-75
2022/08/17 06:50:01;;;;;;;1999.90;999.90;;;;;;;;;;5058215;28;20394;-75
2022/08/17 06:52:33;;;;;;;1999.90;999.90;;;;;;;;;;5078661;28;20393;-77
2022/08/17 06:55:16;;;;;;;1999.90;999.90;;;;;;;;;;5077039;28;20405;-74
2022/08/17 06:57:47;;;;;;;1999.90;999.90;;;;;;;;;;5061572;28;20404;-74
2022/08/17 07:00:17;;;;;;;1999.90;999.90;;;;;;;;;;5056149;28;20439;-75
2022/08/17 07:02:49;;;;;;;1999.90;999.90;;;;;;;;;;5075280;28;20960;-76
2022/08/17 07:05:31;;;;;;;1999.90;999.90;;;;;;;;;;5074183;28;20525;-77
2022/08/17 07:08:02;;;;;;;1999.90;999.90;;;;;;;;;;5074997;28;20496;-76
2022/08/17 07:10:35;;;;;;;1999.90;999.90;;;;;;;;;;5040525;28;20382;-75
2022/08/17 07:13:11;;;;;;;1999.90;999.90;;;;;;;;;;5074066;28;20401;-75
2022/08/17 07:15:42;;;;;;;1999.90;999.90;;;;;;;;;;5060657;28;21031;-75
2022/08/17 07:18:11;;;;;;;1999.90;999.90;;;;;;;;;;5057037;28;20417;-75
2022/08/17 07:20:42;;;;;;;1999.90;999.90;;;;;;;;;;5070894;28;20385;-75
2022/08/17 07:23:18;;;;;;;1999.90;999.90;;;;;;;;;;5060936;28;20445;-75
2022/08/17 07:25:46;;;;;;;1999.90;999.90;;;;;;;;;;5073007;28;20397;-74
2022/08/17 07:28:21;;;;;;;1999.90;999.90;;;;;;;;;;5077650;28;20533;-75
2022/08/17 07:30:51;;;;;;;1999.90;999.90;;;;;;;;;;5080269;28;20393;-74
2022/08/17 07:33:24;;;;;;;1999.90;999.90;;;;;;;;;;5076910;28;20463;-74
2022/08/17 07:35:52;;;;;;;1999.90;999.90;;;;;;;;;;5083938;28;20481;-74
2022/08/17 07:38:22;;;;;;;1999.90;999.90;;;;;;;;;;5072786;28;20408;-74
2022/08/17 07:41:01;;;;;;;1999.90;999.90;;;;;;;;;;5078716;28;20405;-74
2022/08/17 07:43:30;;;;;;;1999.90;999.90;;;;;;;;;;5084576;28;20894;-76
2022/08/17 07:48:52;;;;;;;1999.90;999.90;;;;;;;;;;5082299;28;20409;-73
2022/08/17 07:51:23;;;;;;;1999.90;999.90;;;;;;;;;;5061496;28;20935;-74
2022/08/17 07:53:52;;;;;;;1999.90;999.90;;;;;;;;;;5063716;28;20405;-74
2022/08/17 07:56:37;;;;;;;1999.90;999.90;;;;;;;;;;5080575;28;20395;-73
2022/08/17 07:59:10;;;;;;;1999.90;999.90;;;;;;;;;;5080898;28;20488;-72
2022/08/17 08:01:38;;;;;;;1999.90;999.90;;;;;;;;;;5068887;28;20389;-77
2022/08/17 08:04:27;;;;;;;1999.90;999.90;;;;;;;;;;5081451;28;20447;-76
2022/08/17 08:07:24;;;;;;;1999.90;999.90;;;;;;;;;;5081254;28;20450;-75
2022/08/17 08:10:00;;;;;;;1999.90;999.90;;;;;;;;;;5084975;28;20415;-76
2022/08/17 08:12:32;;;;;;;1999.90;999.90;;;;;;;;;;5084221;28;20918;-78
2022/08/17 08:15:02;;;;;;;1999.90;999.90;;;;;;;;;;5063743;28;20538;-77
2022/08/17 08:17:34;;;;;;;1999.90;999.90;;;;;;;;;;5067388;28;20397;-74
2022/08/17 08:20:04;;;;;;;1999.90;999.90;;;;;;;;;;5064315;28;20412;-75
2022/08/17 08:22:57;;;;;;;1999.90;999.90;;;;;;;;;;5082822;28;20400;-73
2022/08/17 08:25:27;;;;;;;1999.90;999.90;;;;;;;;;;5078216;28;20400;-74
2022/08/17 08:28:06;;;;;;;1999.90;999.90;;;;;;;;;;5078300;28;20403;-74
2022/08/17 08:30:36;;;;;;;1999.90;999.90;;;;;;;;;;5072522;28;21386;-74
2022/08/17 08:33:11;;;;;;;1999.90;999.90;;;;;;;;;;5057988;28;20483;-74
2022/08/17 08:35:43;;;;;;;1999.90;999.90;;;;;;;;;;5062989;28;20412;-73
2022/08/17 08:38:14;;;;;;;1999.90;999.90;;;;;;;;;;5061420;28;20393;-75
2022/08/17 08:40:58;;;;;;;1999.90;999.90;;;;;;;;;;5064140;28;20416;-74
2022/08/17 08:43:29;;;;;;;1999.90;999.90;;;;;;;;;;5048384;28;20409;-75
2022/08/17 08:46:00;;;;;;;1999.90;999.90;;;;;;;;;;5082882;28;20405;-75
2022/08/17 08:48:38;;;;;;;1999.90;999.90;;;;;;;;;;5059639;28;20999;-75
2022/08/17 08:51:29;;;;;;;1999.90;999.90;;;;;;;;;;5076644;28;20413;-76
2022/08/17 08:54:02;;;;;;;1999.90;999.90;;;;;;;;;;5058869;28;20393;-76
2022/08/17 08:56:32;;;;;;;1999.90;999.90;;;;;;;;;;5058979;28;20404;-76
2022/08/17 08:59:03;;;;;;;1999.90;999.90;;;;;;;;;;5042151;28;20400;-77
2022/08/17 09:01:34;;;;;;;1999.90;999.90;;;;;;;;;;5056022;28;20460;-76
2022/08/17 09:04:18;;;;;;;1999.90;999.90;;;;;;;;;;5081475;28;20535;-76
2022/08/17 09:06:56;;;;;;;1999.90;999.90;;;;;;;;;;5081893;28;21300;-76
2022/08/17 09:09:35;;;;;;;1999.90;999.90;;;;;;;;;;5061907;28;21310;-76
